Time;durP1;ratioP1;P1;durP2;ratioP2;P2;SDS_P1;SDS_P2;PMS_P1;PMS_P2;Temp;Humidity;BMP_temperature;BMP_pressure;BME280_temperature;BME280_humidity;BME280_pressure;Samples;Min_cycle;Max_cycle;Signal;HPM_P1;HPM_P2
2022/09/25 00:01:47;;;;;;;2.47;1.80;;;;;;;;;;5024432;28;20231;-54
2022/09/25 00:04:13;;;;;;;3.13;2.10;;;;;;;;;;5023494;28;20205;-52
2022/09/25 00:06:40;;;;;;;1.90;1.70;;;;;;;;;;5025084;28;20310;-51
2022/09/25 00:09:07;;;;;;;2.40;1.90;;;;;;;;;;5019898;28;20740;-52
2022/09/25 00:11:37;;;;;;;2.00;1.73;;;;;;;;;;5024889;28;20191;-52
2022/09/25 00:14:03;;;;;;;2.40;1.83;;;;;;;;;;5021420;28;20226;-53
2022/09/25 00:16:31;;;;;;;2.23;2.03;;;;;;;;;;5024670;28;20306;-54
2022/09/25 00:21:43;;;;;;;2.67;1.97;;;;;;;;;;5020504;28;20282;-54
2022/09/25 00:24:11;;;;;;;2.07;1.87;;;;;;;;;;5008571;28;20279;-54
2022/09/25 00:26:40;;;;;;;2.67;2.03;;;;;;;;;;5019555;28;20730;-54
2022/09/25 00:29:09;;;;;;;2.60;2.00;;;;;;;;;;5024310;28;20204;-53
2022/09/25 00:31:35;;;;;;;2.40;1.60;;;;;;;;;;5028206;28;20250;-53
2022/09/25 00:34:04;;;;;;;2.10;1.73;;;;;;;;;;5020046;28;20200;-51
2022/09/25 00:36:31;;;;;;;2.73;2.00;;;;;;;;;;5022220;28;20270;-51
2022/09/25 00:38:58;;;;;;;2.33;1.80;;;;;;;;;;5003596;28;20735;-51
2022/09/25 00:41:26;;;;;;;2.40;1.80;;;;;;;;;;5019687;28;20291;-52
2022/09/25 00:43:55;;;;;;;2.10;1.90;;;;;;;;;;5022447;28;20267;-51
2022/09/25 00:46:26;;;;;;;2.07;1.87;;;;;;;;;;5022671;28;20266;-51
2022/09/25 00:49:10;;;;;;;2.00;1.80;;;;;;;;;;5019741;28;20245;-53
2022/09/25 00:51:56;;;;;;;1.90;1.70;;;;;;;;;;5020705;28;20287;-54
2022/09/25 00:54:31;;;;;;;2.67;2.00;;;;;;;;;;5008762;28;20634;-54
2022/09/25 00:57:03;;;;;;;2.07;1.83;;;;;;;;;;5023292;28;20296;-51
2022/09/25 00:59:34;;;;;;;2.33;1.80;;;;;;;;;;5010576;28;20216;-52
2022/09/25 01:02:00;;;;;;;2.23;1.80;;;;;;;;;;5026447;28;20287;-51
2022/09/25 01:04:30;;;;;;;2.00;1.77;;;;;;;;;;5021642;28;20200;-53
2022/09/25 01:06:57;;;;;;;1.90;1.70;;;;;;;;;;5025120;28;20229;-51
2022/09/25 01:09:23;;;;;;;2.03;1.80;;;;;;;;;;5008675;28;20565;-52
2022/09/25 01:11:50;;;;;;;2.00;1.67;;;;;;;;;;5019382;28;20192;-52
2022/09/25 01:14:16;;;;;;;2.00;1.80;;;;;;;;;;5022600;28;20282;-51
2022/09/25 01:17:06;;;;;;;2.07;1.87;;;;;;;;;;5019037;28;20741;-51
2022/09/25 01:19:56;;;;;;;2.60;2.00;;;;;;;;;;5006583;28;20227;-51
2022/09/25 01:22:27;;;;;;;1.83;1.60;;;;;;;;;;5016689;28;20427;-51
2022/09/25 01:25:07;;;;;;;2.20;1.70;;;;;;;;;;5007653;28;20286;-51
2022/09/25 01:27:52;;;;;;;2.20;1.90;;;;;;;;;;5016516;28;20639;-53
2022/09/25 01:30:19;;;;;;;2.00;1.80;;;;;;;;;;5023059;28;20282;-50
2022/09/25 01:32:54;;;;;;;1.67;1.57;;;;;;;;;;5007961;28;20634;-51
2022/09/25 01:35:55;;;;;;;2.07;1.80;;;;;;;;;;5024908;28;20306;-51
2022/09/25 01:38:34;;;;;;;1.97;1.53;;;;;;;;;;5029204;28;20282;-51
2022/09/25 01:41:15;;;;;;;1.83;1.70;;;;;;;;;;5005181;28;20255;-51
2022/09/25 01:43:45;;;;;;;1.57;1.47;;;;;;;;;;5027820;28;20309;-51
2022/09/25 01:46:22;;;;;;;1.87;1.73;;;;;;;;;;5021225;28;20314;-53
2022/09/25 01:48:57;;;;;;;2.03;1.83;;;;;;;;;;5002770;28;20211;-51
2022/09/25 01:51:27;;;;;;;2.80;1.90;;;;;;;;;;5029075;28;20290;-54
2022/09/25 01:53:57;;;;;;;2.37;1.80;;;;;;;;;;5009435;28;20291;-51
2022/09/25 01:56:31;;;;;;;2.43;1.90;;;;;;;;;;5011466;28;20829;-51
2022/09/25 01:59:04;;;;;;;1.73;1.53;;;;;;;;;;5012630;28;20282;-51
2022/09/25 02:01:34;;;;;;;2.00;1.80;;;;;;;;;;5024497;28;20304;-51
2022/09/25 02:04:07;;;;;;;1.90;1.60;;;;;;;;;;5010654;28;20196;-51
2022/09/25 02:06:34;;;;;;;2.03;1.70;;;;;;;;;;5024850;28;20669;-51
2022/09/25 02:09:06;;;;;;;2.57;1.70;;;;;;;;;;5024500;28;20237;-53
2022/09/25 02:11:40;;;;;;;1.63;1.53;;;;;;;;;;5028400;28;20290;-51
2022/09/25 02:14:14;;;;;;;1.87;1.50;;;;;;;;;;5024023;28;20289;-51
2022/09/25 02:16:42;;;;;;;1.77;1.50;;;;;;;;;;5009014;28;20301;-51
2022/09/25 02:22:22;;;;;;;2.03;1.83;;;;;;;;;;5012130;28;20203;-51
2022/09/25 02:24:54;;;;;;;1.77;1.67;;;;;;;;;;5029277;28;20251;-51
2022/09/25 02:27:26;;;;;;;2.20;1.87;;;;;;;;;;5008962;28;20731;-51
2022/09/25 02:29:54;;;;;;;2.07;1.50;;;;;;;;;;5007758;28;20633;-51
2022/09/25 02:32:30;;;;;;;2.20;1.70;;;;;;;;;;5027194;28;20295;-52
2022/09/25 02:34:58;;;;;;;1.60;1.50;;;;;;;;;;5028026;28;20282;-51
2022/09/25 02:37:25;;;;;;;2.40;1.70;;;;;;;;;;5011239;28;20200;-51
2022/09/25 02:39:55;;;;;;;2.27;1.70;;;;;;;;;;5025886;28;21024;-51
2022/09/25 02:42:41;;;;;;;1.77;1.63;;;;;;;;;;5028431;28;20229;-51
2022/09/25 02:45:36;;;;;;;1.63;1.53;;;;;;;;;;5025162;28;20278;-53
2022/09/25 02:48:24;;;;;;;1.80;1.60;;;;;;;;;;5005919;28;20217;-51
2022/09/25 02:50:56;;;;;;;2.00;1.60;;;;;;;;;;5020931;28;20635;-51
2022/09/25 02:53:30;;;;;;;2.07;1.70;;;;;;;;;;5006971;28;20638;-51
2022/09/25 02:56:02;;;;;;;2.10;1.70;;;;;;;;;;5028246;28;20301;-52
2022/09/25 02:58:34;;;;;;;1.77;1.60;;;;;;;;;;5007973;28;20246;-51
2022/09/25 03:01:03;;;;;;;3.10;1.80;;;;;;;;;;5029367;28;20746;-51
2022/09/25 03:03:30;;;;;;;2.00;1.80;;;;;;;;;;5011240;28;20199;-51
2022/09/25 03:05:57;;;;;;;1.90;1.67;;;;;;;;;;5007276;28;20310;-52
2022/09/25 03:08:37;;;;;;;2.70;1.70;;;;;;;;;;5009918;28;20283;-51
2022/09/25 03:11:05;;;;;;;1.93;1.73;;;;;;;;;;5010936;28;20278;-51
2022/09/25 03:13:32;;;;;;;1.93;1.73;;;;;;;;;;5007543;28;20203;-51
2022/09/25 03:16:13;;;;;;;2.30;1.70;;;;;;;;;;5027943;28;20257;-52
2022/09/25 03:18:40;;;;;;;2.20;1.80;;;;;;;;;;5011914;28;20195;-51
2022/09/25 03:21:06;;;;;;;2.03;1.83;;;;;;;;;;5028321;28;20306;-51
2022/09/25 03:23:32;;;;;;;2.10;1.60;;;;;;;;;;5027589;28;20278;-51
2022/09/25 03:25:59;;;;;;;1.80;1.57;;;;;;;;;;5024544;28;20476;-52
2022/09/25 03:28:26;;;;;;;2.10;1.90;;;;;;;;;;5024856;28;20299;-52
2022/09/25 03:31:07;;;;;;;1.60;1.50;;;;;;;;;;5024463;28;20275;-51
2022/09/25 03:33:39;;;;;;;1.60;1.50;;;;;;;;;;5026321;28;20278;-53
2022/09/25 03:36:32;;;;;;;2.07;1.80;;;;;;;;;;5015840;28;20648;-53
2022/09/25 03:38:59;;;;;;;1.90;1.60;;;;;;;;;;5019939;28;20203;-51
2022/09/25 03:41:28;;;;;;;1.70;1.50;;;;;;;;;;5007116;28;20294;-52
2022/09/25 03:43:55;;;;;;;2.13;1.80;;;;;;;;;;5025858;28;20299;-52
2022/09/25 03:46:24;;;;;;;1.90;1.50;;;;;;;;;;5006468;28;20247;-51
2022/09/25 03:48:52;;;;;;;1.73;1.60;;;;;;;;;;5028636;28;20238;-52
2022/09/25 03:51:19;;;;;;;1.70;1.60;;;;;;;;;;5026107;28;20275;-51
2022/09/25 03:53:46;;;;;;;1.83;1.70;;;;;;;;;;5027046;28;20295;-51
2022/09/25 03:56:22;;;;;;;1.93;1.70;;;;;;;;;;5026163;28;20310;-53
2022/09/25 03:58:50;;;;;;;1.63;1.53;;;;;;;;;;5015945;28;20281;-52
2022/09/25 04:01:18;;;;;;;1.60;1.50;;;;;;;;;;5025800;28;20219;-54
2022/09/25 04:03:46;;;;;;;1.70;1.60;;;;;;;;;;5027527;28;20723;-51
2022/09/25 04:06:17;;;;;;;2.17;1.60;;;;;;;;;;5024359;28;20788;-53
2022/09/25 04:08:44;;;;;;;2.43;1.63;;;;;;;;;;5009737;28;20262;-51
2022/09/25 04:11:10;;;;;;;1.87;1.60;;;;;;;;;;5024584;28;20204;-51
2022/09/25 04:13:36;;;;;;;1.73;1.47;;;;;;;;;;5022136;28;20302;-52
2022/09/25 04:16:05;;;;;;;2.00;1.80;;;;;;;;;;5022547;28;20272;-51
2022/09/25 04:18:32;;;;;;;1.97;1.50;;;;;;;;;;5018063;28;20200;-53
2022/09/25 04:21:02;;;;;;;1.80;1.60;;;;;;;;;;5026005;28;20310;-51
2022/09/25 04:23:29;;;;;;;1.50;1.40;;;;;;;;;;5018825;28;20679;-51
2022/09/25 04:25:55;;;;;;;2.03;1.73;;;;;;;;;;5025457;28;20259;-51
2022/09/25 04:28:22;;;;;;;1.70;1.57;;;;;;;;;;5018456;28;20645;-51
2022/09/25 04:30:49;;;;;;;2.33;1.67;;;;;;;;;;5025797;28;20425;-51
2022/09/25 04:36:02;;;;;;;1.67;1.57;;;;;;;;;;5028669;28;20306;-52
2022/09/25 04:38:31;;;;;;;2.20;1.80;;;;;;;;;;5026639;28;20282;-51
2022/09/25 04:41:00;;;;;;;1.50;1.40;;;;;;;;;;5022325;28;20667;-52
2022/09/25 04:43:28;;;;;;;1.67;1.57;;;;;;;;;;5025671;28;20235;-54
2022/09/25 04:45:54;;;;;;;1.40;1.30;;;;;;;;;;5021435;28;20251;-51
2022/09/25 04:48:21;;;;;;;1.80;1.50;;;;;;;;;;5019900;28;20218;-51
2022/09/25 04:50:48;;;;;;;1.80;1.70;;;;;;;;;;5022527;28;20279;-51
2022/09/25 04:53:15;;;;;;;2.37;1.60;;;;;;;;;;5003587;28;20279;-51
2022/09/25 04:55:41;;;;;;;1.70;1.60;;;;;;;;;;5022989;28;20303;-51
2022/09/25 04:58:08;;;;;;;1.80;1.60;;;;;;;;;;5014776;28;20283;-51
2022/09/25 05:00:36;;;;;;;1.73;1.60;;;;;;;;;;5023807;28;20219;-52
2022/09/25 05:03:03;;;;;;;1.77;1.50;;;;;;;;;;5010763;28;20208;-51
2022/09/25 05:05:30;;;;;;;1.80;1.50;;;;;;;;;;5026556;28;20219;-52
2022/09/25 05:07:58;;;;;;;1.70;1.60;;;;;;;;;;5026243;28;20287;-52
2022/09/25 05:10:27;;;;;;;1.57;1.47;;;;;;;;;;5026094;28;20199;-52
2022/09/25 05:12:55;;;;;;;1.93;1.70;;;;;;;;;;5019409;28;20238;-51
2022/09/25 05:15:21;;;;;;;1.67;1.57;;;;;;;;;;5022911;28;20215;-52
2022/09/25 05:17:48;;;;;;;1.50;1.40;;;;;;;;;;5019060;28;20200;-54
2022/09/25 05:20:15;;;;;;;1.70;1.60;;;;;;;;;;5020877;28;20283;-54
2022/09/25 05:22:41;;;;;;;1.40;1.30;;;;;;;;;;5016903;28;20279;-51
2022/09/25 05:25:08;;;;;;;1.60;1.50;;;;;;;;;;5001469;28;20283;-53
2022/09/25 05:27:34;;;;;;;2.17;1.60;;;;;;;;;;5022230;28;20303;-54
2022/09/25 05:30:01;;;;;;;1.70;1.53;;;;;;;;;;5018803;28;20283;-53
2022/09/25 05:32:27;;;;;;;2.07;1.73;;;;;;;;;;5007700;28;20191;-53
2022/09/25 05:34:53;;;;;;;1.60;1.50;;;;;;;;;;5021601;28;20661;-51
2022/09/25 05:37:20;;;;;;;1.63;1.40;;;;;;;;;;5019307;28;20282;-53
2022/09/25 05:39:47;;;;;;;1.40;1.30;;;;;;;;;;5019199;28;20671;-56
2022/09/25 05:42:14;;;;;;;2.00;1.63;;;;;;;;;;5027397;28;20306;-54
2022/09/25 05:44:41;;;;;;;1.80;1.70;;;;;;;;;;5022570;28;20299;-52
2022/09/25 05:47:07;;;;;;;1.47;1.33;;;;;;;;;;5024587;28;20270;-54
2022/09/25 05:49:33;;;;;;;2.10;1.60;;;;;;;;;;5021553;28;20246;-54
2022/09/25 05:52:00;;;;;;;1.70;1.53;;;;;;;;;;5024231;28;20279;-55
2022/09/25 05:54:26;;;;;;;1.70;1.47;;;;;;;;;;5022947;28;20282;-52
2022/09/25 05:56:53;;;;;;;1.70;1.57;;;;;;;;;;5021797;28;20350;-53
2022/09/25 05:59:19;;;;;;;1.53;1.43;;;;;;;;;;5022532;28;20298;-55
2022/09/25 06:01:46;;;;;;;1.63;1.40;;;;;;;;;;5020703;28;20302;-55
2022/09/25 06:04:12;;;;;;;1.50;1.40;;;;;;;;;;5027436;28;20300;-52
2022/09/25 06:06:38;;;;;;;1.90;1.37;;;;;;;;;;5005752;28;20242;-52
2022/09/25 06:09:05;;;;;;;1.70;1.60;;;;;;;;;;5021797;28;20664;-55
2022/09/25 06:11:31;;;;;;;1.60;1.40;;;;;;;;;;5023627;28;20283;-52
2022/09/25 06:13:57;;;;;;;1.50;1.33;;;;;;;;;;5019643;28;20291;-51
2022/09/25 06:16:24;;;;;;;1.53;1.43;;;;;;;;;;5024757;28;20322;-53
2022/09/25 06:18:51;;;;;;;1.90;1.53;;;;;;;;;;5020251;28;20250;-51
2022/09/25 06:21:17;;;;;;;1.57;1.40;;;;;;;;;;5027767;28;20314;-51
2022/09/25 06:23:44;;;;;;;1.50;1.40;;;;;;;;;;5024187;28;20660;-51
2022/09/25 06:26:11;;;;;;;1.70;1.60;;;;;;;;;;5026770;28;20743;-54
2022/09/25 06:28:37;;;;;;;1.30;1.20;;;;;;;;;;5019320;28;20742;-52
2022/09/25 06:31:04;;;;;;;1.70;1.60;;;;;;;;;;5026988;28;20291;-51
2022/09/25 06:33:31;;;;;;;1.43;1.33;;;;;;;;;;5023217;28;20201;-52
2022/09/25 06:35:57;;;;;;;1.70;1.40;;;;;;;;;;5027263;28;21737;-52
2022/09/25 06:38:24;;;;;;;1.40;1.30;;;;;;;;;;5028105;28;20659;-52
2022/09/25 06:40:51;;;;;;;1.60;1.40;;;;;;;;;;5023486;28;20282;-53
2022/09/25 06:43:18;;;;;;;1.83;1.60;;;;;;;;;;5028871;28;20206;-53
2022/09/25 06:45:46;;;;;;;1.70;1.50;;;;;;;;;;5023039;28;20516;-52
2022/09/25 06:48:15;;;;;;;1.53;1.43;;;;;;;;;;5025916;28;20237;-54
2022/09/25 06:50:43;;;;;;;1.50;1.40;;;;;;;;;;5007852;28;20295;-52
2022/09/25 06:53:10;;;;;;;1.77;1.40;;;;;;;;;;5030297;28;20295;-51
2022/09/25 06:55:36;;;;;;;1.50;1.40;;;;;;;;;;5026702;28;20779;-52
2022/09/25 06:58:05;;;;;;;1.30;1.17;;;;;;;;;;5026560;28;20200;-51
2022/09/25 07:00:32;;;;;;;1.97;1.50;;;;;;;;;;5021436;28;20294;-55
2022/09/25 07:05:44;;;;;;;1.40;1.30;;;;;;;;;;5019743;28;20302;-51
2022/09/25 07:08:12;;;;;;;1.40;1.13;;;;;;;;;;5022197;28;20667;-49
2022/09/25 07:10:39;;;;;;;1.93;1.40;;;;;;;;;;5021883;28;20647;-51
2022/09/25 07:13:11;;;;;;;1.50;1.30;;;;;;;;;;5020476;28;20204;-51
2022/09/25 07:15:37;;;;;;;1.57;1.40;;;;;;;;;;5024408;28;20212;-52
2022/09/25 07:18:04;;;;;;;1.33;1.23;;;;;;;;;;5026163;28;20203;-54
2022/09/25 07:20:31;;;;;;;1.77;1.47;;;;;;;;;;5026972;28;20202;-53
2022/09/25 07:23:03;;;;;;;1.50;1.40;;;;;;;;;;5010796;28;20220;-50
2022/09/25 07:25:30;;;;;;;1.50;1.40;;;;;;;;;;5027095;28;20646;-51
2022/09/25 07:27:57;;;;;;;1.43;1.33;;;;;;;;;;5022926;28;20245;-51
2022/09/25 07:30:28;;;;;;;1.70;1.40;;;;;;;;;;5025125;28;20314;-51
2022/09/25 07:32:55;;;;;;;1.43;1.30;;;;;;;;;;5021818;28;20207;-51
2022/09/25 07:35:26;;;;;;;1.77;1.50;;;;;;;;;;5026294;28;20215;-51
2022/09/25 07:37:55;;;;;;;1.63;1.30;;;;;;;;;;5026318;28;20279;-52
2022/09/25 07:40:22;;;;;;;1.97;1.60;;;;;;;;;;5024981;28;20234;-52
2022/09/25 07:42:48;;;;;;;1.40;1.30;;;;;;;;;;5022468;28;20265;-54
2022/09/25 07:45:15;;;;;;;1.47;1.37;;;;;;;;;;5024817;28;20721;-51
2022/09/25 07:47:41;;;;;;;1.67;1.40;;;;;;;;;;5026094;28;20212;-51
2022/09/25 07:50:08;;;;;;;1.40;1.27;;;;;;;;;;5024421;28;20310;-53
2022/09/25 07:52:40;;;;;;;1.30;1.20;;;;;;;;;;5022131;28;20199;-52
2022/09/25 07:55:07;;;;;;;1.40;1.27;;;;;;;;;;5027020;28;20774;-51
2022/09/25 07:57:33;;;;;;;1.40;1.30;;;;;;;;;;5027285;28;20299;-51
2022/09/25 08:00:00;;;;;;;1.60;1.30;;;;;;;;;;5024944;28;20290;-51
2022/09/25 08:02:26;;;;;;;1.60;1.50;;;;;;;;;;5023187;28;20306;-51
2022/09/25 08:04:53;;;;;;;2.47;2.10;;;;;;;;;;5027057;28;20744;-51
2022/09/25 08:07:19;;;;;;;1.43;1.33;;;;;;;;;;5021974;28;20196;-55
2022/09/25 08:09:46;;;;;;;1.40;1.30;;;;;;;;;;5025057;28;20290;-51
2022/09/25 08:12:12;;;;;;;2.37;2.17;;;;;;;;;;5024007;28;20290;-51
2022/09/25 08:14:38;;;;;;;1.30;1.20;;;;;;;;;;5021264;28;20289;-51
2022/09/25 08:17:05;;;;;;;1.30;1.20;;;;;;;;;;5025704;28;20414;-52
2022/09/25 08:19:32;;;;;;;4.17;2.27;;;;;;;;;;5022901;28;20517;-52
2022/09/25 08:21:58;;;;;;;1.93;1.73;;;;;;;;;;5022314;28;20314;-51
2022/09/25 08:24:24;;;;;;;1.50;1.40;;;;;;;;;;5025171;28;20286;-54
2022/09/25 08:26:51;;;;;;;1.90;1.60;;;;;;;;;;5022028;28;20323;-53
2022/09/25 08:29:17;;;;;;;1.53;1.37;;;;;;;;;;5017813;28;20282;-53
2022/09/25 08:31:43;;;;;;;2.33;1.60;;;;;;;;;;5024783;28;20211;-51
2022/09/25 08:34:10;;;;;;;1.93;1.77;;;;;;;;;;5026380;28;20635;-51
2022/09/25 08:36:57;;;;;;;1.73;1.57;;;;;;;;;;5026216;28;20227;-53
2022/09/25 08:39:23;;;;;;;1.40;1.30;;;;;;;;;;5024700;28;20278;-50
2022/09/25 08:41:52;;;;;;;2.67;1.70;;;;;;;;;;5023111;28;20259;-52
2022/09/25 08:44:29;;;;;;;1.50;1.40;;;;;;;;;;5007390;28;20279;-55
2022/09/25 08:49:56;;;;;;;1.73;1.53;;;;;;;;;;5022929;28;20253;-52
2022/09/25 08:52:22;;;;;;;2.57;1.63;;;;;;;;;;5008741;28;20648;-53
2022/09/25 08:54:50;;;;;;;2.23;1.90;;;;;;;;;;5017942;28;20227;-53
2022/09/25 08:57:33;;;;;;;2.33;2.00;;;;;;;;;;5026214;28;20417;-52
2022/09/25 09:00:10;;;;;;;2.20;1.80;;;;;;;;;;5023746;28;20242;-52
2022/09/25 09:02:44;;;;;;;2.13;1.90;;;;;;;;;;5026731;28;20302;-52
2022/09/25 09:05:23;;;;;;;2.30;1.83;;;;;;;;;;5019710;28;20203;-50
2022/09/25 09:07:55;;;;;;;2.43;2.20;;;;;;;;;;5024361;28;20195;-53
2022/09/25 09:10:33;;;;;;;3.23;2.30;;;;;;;;;;5016961;28;20205;-52
2022/09/25 09:13:10;;;;;;;3.63;2.28;;;;;;;;;;5025292;28;20290;-52
2022/09/25 09:15:40;;;;;;;4.23;2.57;;;;;;;;;;5019611;28;20302;-51
2022/09/25 09:18:21;;;;;;;3.30;2.50;;;;;;;;;;5004268;28;20958;-51
2022/09/25 09:20:51;;;;;;;5.07;2.45;;;;;;;;;;5023886;28;20235;-52
2022/09/25 09:23:20;;;;;;;2.63;2.25;;;;;;;;;;5021416;28;20231;-51
2022/09/25 09:26:20;;;;;;;2.80;2.30;;;;;;;;;;5022315;28;20302;-51
2022/09/25 09:29:10;;;;;;;2.97;2.17;;;;;;;;;;5007768;28;20195;-51
2022/09/25 09:32:11;;;;;;;3.50;2.40;;;;;;;;;;5021372;28;20287;-51
2022/09/25 09:34:44;;;;;;;3.63;2.37;;;;;;;;;;5006226;28;20294;-51
2022/09/25 09:37:49;;;;;;;2.97;2.20;;;;;;;;;;5015563;28;20195;-52
2022/09/25 09:40:35;;;;;;;3.10;2.28;;;;;;;;;;5019457;28;20226;-51
2022/09/25 09:43:19;;;;;;;3.27;2.23;;;;;;;;;;5000567;28;20220;-51
2022/09/25 09:45:51;;;;;;;2.70;2.20;;;;;;;;;;5019755;28;20318;-52
2022/09/25 09:48:40;;;;;;;3.10;2.40;;;;;;;;;;5008632;28;20211;-52
2022/09/25 09:51:11;;;;;;;2.50;2.20;;;;;;;;;;5021429;28;20286;-52
2022/09/25 09:53:40;;;;;;;2.70;2.20;;;;;;;;;;4999984;28;20196;-51
2022/09/25 09:56:16;;;;;;;3.03;2.27;;;;;;;;;;5025015;28;20674;-51
2022/09/25 09:59:10;;;;;;;3.10;2.50;;;;;;;;;;5011840;28;20196;-51
2022/09/25 10:01:38;;;;;;;3.90;2.30;;;;;;;;;;5029284;28;20289;-53
2022/09/25 10:04:10;;;;;;;2.97;2.27;;;;;;;;;;5013337;28;20294;-51
2022/09/25 10:06:42;;;;;;;3.07;2.23;;;;;;;;;;5024978;28;20223;-52
2022/09/25 10:09:12;;;;;;;3.20;2.27;;;;;;;;;;5029798;28;20282;-51
2022/09/25 10:11:39;;;;;;;2.60;2.40;;;;;;;;;;5010706;28;20274;-51
2022/09/25 10:14:10;;;;;;;2.43;2.13;;;;;;;;;;5029636;28;20223;-54
2022/09/25 10:16:37;;;;;;;3.10;2.40;;;;;;;;;;5008336;28;20361;-51
2022/09/25 10:19:19;;;;;;;3.35;2.30;;;;;;;;;;5029208;28;20290;-53
2022/09/25 10:21:53;;;;;;;2.63;2.20;;;;;;;;;;5010278;28;20722;-51
2022/09/25 10:24:44;;;;;;;2.47;2.00;;;;;;;;;;5011239;28;20298;-51
2022/09/25 10:27:29;;;;;;;2.95;2.20;;;;;;;;;;5027812;28;20302;-51
2022/09/25 10:30:10;;;;;;;3.17;2.30;;;;;;;;;;5027535;28;20289;-50
2022/09/25 10:32:59;;;;;;;4.45;3.22;;;;;;;;;;5027915;28;20229;-52
2022/09/25 10:35:42;;;;;;;3.58;2.83;;;;;;;;;;5002009;28;20605;-55
2022/09/25 10:38:28;;;;;;;3.20;2.60;;;;;;;;;;5022655;28;20282;-55
2022/09/25 10:41:12;;;;;;;4.20;2.72;;;;;;;;;;5007582;28;20204;-54
2022/09/25 10:43:52;;;;;;;5.45;3.20;;;;;;;;;;5029197;28;20313;-54
2022/09/25 10:52:10;;;;;;;4.00;3.23;;;;;;;;;;5022469;28;20227;-56
2022/09/25 10:54:37;;;;;;;7.60;3.73;;;;;;;;;;5021924;28;20600;-57
2022/09/25 10:57:33;;;;;;;6.15;3.50;;;;;;;;;;5029472;28;20306;-57
2022/09/25 11:00:05;;;;;;;5.80;3.90;;;;;;;;;;5024203;28;20290;-57
2022/09/25 11:02:37;;;;;;;4.47;3.35;;;;;;;;;;5009116;28;20219;-58
2022/09/25 11:05:05;;;;;;;5.35;3.70;;;;;;;;;;5024881;28;20635;-58
2022/09/25 11:07:32;;;;;;;5.40;3.90;;;;;;;;;;5028847;28;20286;-58
2022/09/25 11:09:58;;;;;;;4.77;3.77;;;;;;;;;;5026307;28;20200;-57
2022/09/25 11:12:28;;;;;;;4.82;3.67;;;;;;;;;;5011682;28;20569;-57
2022/09/25 11:15:00;;;;;;;4.33;3.80;;;;;;;;;;5004020;28;20283;-58
2022/09/25 11:17:37;;;;;;;6.82;4.32;;;;;;;;;;5024924;28;20283;-56
2022/09/25 11:20:12;;;;;;;6.80;4.13;;;;;;;;;;5020748;28;20299;-57
2022/09/25 11:22:39;;;;;;;6.10;3.78;;;;;;;;;;5014062;28;20749;-58
2022/09/25 11:25:19;;;;;;;6.43;3.90;;;;;;;;;;5018877;28;20331;-57
2022/09/25 11:27:57;;;;;;;5.63;3.40;;;;;;;;;;5019837;28;20246;-57
2022/09/25 11:30:24;;;;;;;5.43;3.83;;;;;;;;;;5006853;28;20286;-58
2022/09/25 11:32:59;;;;;;;6.28;3.60;;;;;;;;;;5005193;28;20228;-58
2022/09/25 11:35:55;;;;;;;4.93;3.60;;;;;;;;;;5021804;28;20303;-58
2022/09/25 11:41:44;;;;;;;5.33;3.70;;;;;;;;;;5023619;28;20231;-58
2022/09/25 11:44:34;;;;;;;6.03;3.70;;;;;;;;;;5007093;28;20312;-57
2022/09/25 11:47:20;;;;;;;4.85;3.20;;;;;;;;;;5006787;28;20227;-58
2022/09/25 11:49:50;;;;;;;6.80;3.90;;;;;;;;;;5005306;28;20196;-56
2022/09/25 11:52:44;;;;;;;5.60;3.55;;;;;;;;;;5005773;28;20192;-58
2022/09/25 11:55:20;;;;;;;5.90;3.97;;;;;;;;;;5006357;28;20287;-57
2022/09/25 11:58:19;;;;;;;8.70;3.70;;;;;;;;;;5004341;28;20275;-55
2022/09/25 12:00:58;;;;;;;5.00;3.65;;;;;;;;;;5005285;28;20677;-58
2022/09/25 12:03:46;;;;;;;5.05;3.70;;;;;;;;;;5025177;28;20242;-55
2022/09/25 12:06:21;;;;;;;5.70;3.50;;;;;;;;;;5022842;28;20306;-56
2022/09/25 12:09:14;;;;;;;4.40;3.40;;;;;;;;;;5021166;28;20263;-58
2022/09/25 12:11:56;;;;;;;5.88;4.05;;;;;;;;;;5004405;28;20723;-58
2022/09/25 12:14:36;;;;;;;5.03;3.40;;;;;;;;;;5026133;28;20223;-58
2022/09/25 12:17:19;;;;;;;4.95;3.80;;;;;;;;;;5025414;28;20250;-55
2022/09/25 12:20:06;;;;;;;7.80;3.67;;;;;;;;;;5006049;28;20291;-57
2022/09/25 12:22:47;;;;;;;5.43;3.95;;;;;;;;;;5017525;28;20306;-56
2022/09/25 12:25:51;;;;;;;6.40;3.90;;;;;;;;;;5015678;28;20303;-56
2022/09/25 12:28:29;;;;;;;6.28;3.70;;;;;;;;;;5013930;28;20274;-57
2022/09/25 12:31:26;;;;;;;5.72;3.72;;;;;;;;;;4997336;28;20286;-54
2022/09/25 12:34:25;;;;;;;5.25;3.65;;;;;;;;;;5011680;28;20201;-57
2022/09/25 12:36:57;;;;;;;5.13;3.60;;;;;;;;;;5006079;28;20663;-55
2022/09/25 12:39:47;;;;;;;4.97;3.28;;;;;;;;;;5001623;28;20201;-55
2022/09/25 12:42:37;;;;;;;5.43;3.30;;;;;;;;;;5003499;28;20763;-57
2022/09/25 12:45:24;;;;;;;5.60;3.47;;;;;;;;;;4995915;28;20291;-56
2022/09/25 12:48:06;;;;;;;6.45;3.67;;;;;;;;;;5015229;28;20742;-57
2022/09/25 12:50:37;;;;;;;6.85;3.65;;;;;;;;;;4990290;28;20279;-57
2022/09/25 12:53:21;;;;;;;5.38;3.60;;;;;;;;;;5022251;28;20723;-57
2022/09/25 12:55:53;;;;;;;5.38;3.50;;;;;;;;;;5014667;28;20676;-57
2022/09/25 12:58:24;;;;;;;4.70;3.65;;;;;;;;;;5016283;28;20223;-56
2022/09/25 13:00:56;;;;;;;4.80;3.73;;;;;;;;;;5017972;28;20282;-55
2022/09/25 13:03:30;;;;;;;5.13;3.73;;;;;;;;;;5004377;28;20219;-56
2022/09/25 13:06:15;;;;;;;4.17;3.47;;;;;;;;;;5015005;28;20285;-57
2022/09/25 13:08:50;;;;;;;4.73;3.33;;;;;;;;;;5016963;28;20274;-57
2022/09/25 13:11:33;;;;;;;4.70;3.37;;;;;;;;;;5016315;28;20282;-58
2022/09/25 13:14:01;;;;;;;4.50;3.25;;;;;;;;;;4997300;28;20295;-57
2022/09/25 13:16:27;;;;;;;7.97;3.43;;;;;;;;;;5013848;28;20335;-58
2022/09/25 13:19:11;;;;;;;4.60;3.30;;;;;;;;;;5015742;28;20200;-57
2022/09/25 13:21:41;;;;;;;5.65;3.40;;;;;;;;;;5011064;28;20282;-55
2022/09/25 13:24:12;;;;;;;4.13;3.47;;;;;;;;;;4999103;28;20219;-54
2022/09/25 13:26:44;;;;;;;4.80;3.47;;;;;;;;;;5012840;28;20373;-56
2022/09/25 13:29:24;;;;;;;4.13;3.00;;;;;;;;;;5018555;28;20298;-57
2022/09/25 13:32:01;;;;;;;4.25;3.35;;;;;;;;;;5017799;28;20195;-55
2022/09/25 13:34:33;;;;;;;6.47;3.42;;;;;;;;;;5004047;28;20222;-57
2022/09/25 13:37:03;;;;;;;4.10;3.17;;;;;;;;;;5021522;28;20925;-56
2022/09/25 13:42:37;;;;;;;4.20;3.20;;;;;;;;;;5005457;28;20279;-57
2022/09/25 13:45:23;;;;;;;4.10;3.15;;;;;;;;;;4996606;28;20679;-58
2022/09/25 13:48:24;;;;;;;4.33;3.13;;;;;;;;;;5017179;28;20214;-57
2022/09/25 13:51:17;;;;;;;5.17;3.40;;;;;;;;;;5009354;28;20277;-57
2022/09/25 13:54:03;;;;;;;3.73;3.10;;;;;;;;;;5021644;28;20227;-55
2022/09/25 13:56:33;;;;;;;4.07;3.10;;;;;;;;;;5001800;28;20225;-57
2022/09/25 13:59:01;;;;;;;4.40;3.20;;;;;;;;;;5018422;28;20291;-56
2022/09/25 14:01:36;;;;;;;4.77;3.00;;;;;;;;;;5023853;28;20279;-55
2022/09/25 14:04:13;;;;;;;3.73;3.20;;;;;;;;;;5016167;28;20234;-58
2022/09/25 14:06:41;;;;;;;6.07;3.20;;;;;;;;;;5016624;28;20297;-55
2022/09/25 14:09:17;;;;;;;4.07;2.97;;;;;;;;;;5019827;28;20267;-56
2022/09/25 14:11:59;;;;;;;4.93;3.10;;;;;;;;;;5016679;28;20199;-57
2022/09/25 14:14:29;;;;;;;3.87;3.13;;;;;;;;;;5021514;28;20275;-57
2022/09/25 14:16:57;;;;;;;4.47;3.20;;;;;;;;;;4996220;28;20311;-56
2022/09/25 14:19:28;;;;;;;4.97;3.17;;;;;;;;;;5004475;28;20282;-57
2022/09/25 14:21:55;;;;;;;3.67;3.07;;;;;;;;;;5003389;28;20282;-57
2022/09/25 14:24:29;;;;;;;3.60;2.77;;;;;;;;;;5002278;28;20315;-57
2022/09/25 14:27:00;;;;;;;6.57;2.97;;;;;;;;;;5013640;28;20330;-56
2022/09/25 14:29:31;;;;;;;3.90;2.90;;;;;;;;;;5005055;28;20200;-53
2022/09/25 14:32:34;;;;;;;3.67;2.70;;;;;;;;;;5017361;28;20727;-57
2022/09/25 14:35:34;;;;;;;4.03;3.27;;;;;;;;;;5003986;28;20226;-56
2022/09/25 14:38:25;;;;;;;3.90;2.83;;;;;;;;;;5018232;28;20208;-57
2022/09/25 14:41:10;;;;;;;3.67;2.78;;;;;;;;;;5018960;28;20287;-55
2022/09/25 14:44:18;;;;;;;3.85;2.80;;;;;;;;;;5017859;28;20219;-56
2022/09/25 14:46:47;;;;;;;4.00;2.88;;;;;;;;;;5003857;28;20224;-56
2022/09/25 14:49:38;;;;;;;3.53;2.88;;;;;;;;;;5021253;28;20291;-57
2022/09/25 14:52:10;;;;;;;2.95;2.58;;;;;;;;;;4998084;28;20296;-57
2022/09/25 14:54:41;;;;;;;3.50;2.92;;;;;;;;;;5007861;28;20663;-55
2022/09/25 14:57:08;;;;;;;3.75;2.72;;;;;;;;;;5018276;28;20306;-57
2022/09/25 14:59:41;;;;;;;4.20;3.25;;;;;;;;;;5017353;28;20280;-55
2022/09/25 15:02:32;;;;;;;3.47;2.88;;;;;;;;;;5008067;28;20259;-58
2022/09/25 15:05:15;;;;;;;4.47;2.70;;;;;;;;;;5015410;28;20220;-54
2022/09/25 15:07:43;;;;;;;3.55;3.03;;;;;;;;;;5016548;28;20650;-58
2022/09/25 15:10:37;;;;;;;4.22;3.00;;;;;;;;;;5017820;28;20298;-57
2022/09/25 15:13:04;;;;;;;5.13;3.00;;;;;;;;;;5018907;28;20294;-56
2022/09/25 15:15:30;;;;;;;3.77;2.63;;;;;;;;;;5015087;28;21011;-57
2022/09/25 15:17:58;;;;;;;3.63;2.93;;;;;;;;;;5004441;28;20230;-56
2022/09/25 15:20:31;;;;;;;3.15;2.85;;;;;;;;;;5015708;28;20286;-54
2022/09/25 15:23:03;;;;;;;3.03;2.70;;;;;;;;;;4998010;28;20231;-55
2022/09/25 15:25:44;;;;;;;3.60;2.95;;;;;;;;;;5018105;28;20706;-56
2022/09/25 15:28:15;;;;;;;3.50;2.65;;;;;;;;;;5005681;28;20196;-56
2022/09/25 15:30:42;;;;;;;3.50;2.67;;;;;;;;;;5003404;28;20639;-54
2022/09/25 15:33:20;;;;;;;2.70;2.40;;;;;;;;;;5020563;28;20204;-54
2022/09/25 15:35:58;;;;;;;3.42;2.85;;;;;;;;;;5014044;28;20220;-56
2022/09/25 15:38:35;;;;;;;3.90;3.03;;;;;;;;;;5004534;28;20282;-55
2022/09/25 15:41:06;;;;;;;3.00;2.70;;;;;;;;;;5015579;28;20287;-56
2022/09/25 15:43:33;;;;;;;3.00;2.70;;;;;;;;;;5003475;28;20221;-57
2022/09/25 15:46:36;;;;;;;3.65;2.80;;;;;;;;;;4999731;28;20303;-58